createdAt,value
2018-08-20T00:00:34.194Z,21.70
2018-08-20T00:01:34.907Z,21.67
2018-08-20T00:02:35.622Z,21.72
2018-08-20T00:03:36.336Z,21.69
2018-08-20T00:04:37.062Z,21.64
2018-08-20T00:05:37.794Z,21.61
2018-08-20T00:06:38.524Z,21.64
2018-08-20T00:07:39.251Z,21.64
2018-08-20T00:08:39.967Z,21.62
2018-08-20T00:09:40.680Z,21.60
2018-08-20T00:10:41.395Z,21.60
2018-08-20T00:11:42.111Z,21.60
2018-08-20T00:12:42.827Z,21.61
2018-08-20T00:13:43.555Z,21.57
2018-08-20T00:14:44.275Z,21.62
2018-08-20T00:15:44.997Z,21.58
2018-08-20T00:16:45.712Z,21.55
2018-08-20T00:17:46.428Z,21.50
2018-08-20T00:18:47.142Z,21.54
2018-08-20T00:19:47.858Z,21.52
2018-08-20T00:20:48.577Z,21.43
2018-08-20T00:21:49.293Z,21.51
2018-08-20T00:22:50.009Z,21.46
2018-08-20T00:23:50.725Z,21.46
2018-08-20T00:24:51.439Z,21.46
2018-08-20T00:25:52.155Z,21.45
2018-08-20T00:26:52.871Z,21.43
2018-08-20T00:27:53.585Z,21.43
2018-08-20T00:28:54.300Z,21.32
2018-08-20T00:29:55.015Z,21.32
2018-08-20T00:30:55.745Z,21.29
2018-08-20T00:31:56.460Z,21.35
2018-08-20T00:32:57.191Z,21.32
2018-08-20T00:33:57.903Z,21.29
2018-08-20T00:34:58.617Z,21.21
2018-08-20T00:35:59.346Z,21.18
2018-08-20T00:37:00.062Z,21.25
2018-08-20T00:38:00.792Z,21.21
2018-08-20T00:39:01.504Z,21.21
2018-08-20T00:40:02.218Z,21.15
2018-08-20T00:41:02.932Z,21.17
2018-08-20T00:42:03.645Z,21.17
2018-08-20T00:43:04.374Z,21.05
2018-08-20T00:44:05.102Z,21.09
2018-08-20T00:45:05.831Z,21.06
2018-08-20T00:46:06.546Z,21.20
2018-08-20T00:47:07.260Z,21.05
2018-08-20T00:48:07.987Z,21.14
2018-08-20T00:49:08.703Z,21.12
2018-08-20T00:50:09.419Z,21.15
2018-08-20T00:51:10.134Z,21.07
2018-08-20T00:52:10.849Z,21.14
2018-08-20T00:53:11.580Z,21.05
2018-08-20T00:54:12.305Z,21.07
2018-08-20T00:55:13.018Z,21.09
2018-08-20T00:56:13.746Z,21.06
2018-08-20T00:57:14.460Z,21.07
2018-08-20T00:58:15.175Z,21.07
2018-08-20T00:59:15.891Z,21.15
2018-08-20T01:00:16.603Z,21.00
2018-08-20T01:01:17.318Z,21.09
2018-08-20T01:02:18.035Z,21.05
2018-08-20T01:03:18.748Z,20.95
2018-08-20T01:04:19.479Z,21.03
2018-08-20T01:05:20.193Z,21.00
2018-08-20T01:06:20.907Z,21.05
2018-08-20T01:07:21.623Z,21.07
2018-08-20T01:08:22.337Z,21.00
2018-08-20T01:09:23.051Z,20.99
2018-08-20T01:10:23.765Z,20.95
2018-08-20T01:11:24.493Z,20.90
2018-08-20T01:12:25.220Z,20.93
2018-08-20T01:13:25.935Z,20.92
2018-08-20T01:14:26.649Z,20.90
2018-08-20T01:15:27.362Z,20.85
2018-08-20T01:16:28.076Z,20.90
2018-08-20T01:17:28.790Z,20.88
2018-08-20T01:18:29.505Z,20.78
2018-08-20T01:19:30.219Z,20.82
2018-08-20T01:20:30.934Z,20.78
2018-08-20T01:21:31.647Z,20.84
2018-08-20T01:22:32.361Z,20.81
2018-08-20T01:23:33.089Z,20.75
2018-08-20T01:24:33.817Z,20.75
2018-08-20T01:25:34.531Z,20.80
2018-08-20T01:26:35.244Z,20.80
2018-08-20T01:27:35.959Z,20.80
2018-08-20T01:28:36.685Z,20.77
2018-08-20T01:29:37.400Z,20.80
2018-08-20T01:30:38.115Z,20.81
2018-08-20T01:31:38.844Z,20.66
2018-08-20T01:32:39.578Z,20.82
2018-08-20T01:33:40.293Z,20.77
2018-08-20T01:34:41.011Z,20.77
2018-08-20T01:35:41.724Z,20.77
2018-08-20T01:36:42.437Z,20.66
2018-08-20T01:37:43.153Z,20.74
2018-08-20T01:38:43.883Z,20.74
2018-08-20T01:39:44.596Z,20.69
2018-08-20T01:40:45.312Z,20.75
2018-08-20T01:41:46.026Z,20.72
2018-08-20T01:42:46.740Z,20.66
2018-08-20T01:43:47.455Z,20.75
2018-08-20T01:44:48.170Z,20.74
2018-08-20T01:45:48.885Z,20.72
2018-08-20T01:46:49.616Z,20.69
2018-08-20T01:47:50.341Z,20.74
2018-08-20T01:48:51.069Z,20.72
2018-08-20T01:49:51.786Z,20.72
2018-08-20T01:50:52.516Z,20.59
2018-08-20T01:51:53.233Z,20.59
2018-08-20T01:52:53.962Z,20.78
2018-08-20T01:53:54.691Z,20.62
2018-08-20T01:54:55.419Z,20.72
2018-08-20T01:55:56.134Z,20.65
2018-08-20T01:56:56.850Z,20.67
2018-08-20T01:57:57.564Z,20.74
2018-08-20T01:58:58.278Z,20.65
2018-08-20T01:59:59.007Z,20.70
2018-08-20T02:00:59.733Z,20.60
2018-08-20T02:02:00.460Z,20.75
2018-08-20T02:03:01.174Z,20.59
2018-08-20T02:04:01.889Z,20.72
2018-08-20T02:05:02.604Z,20.59
2018-08-20T02:06:03.318Z,20.74
2018-08-20T02:07:04.031Z,20.70
2018-08-20T02:08:04.744Z,20.62
2018-08-20T02:09:05.460Z,20.67
2018-08-20T02:10:06.174Z,20.58
2018-08-20T02:11:06.890Z,20.70
2018-08-20T02:12:07.601Z,20.70
2018-08-20T02:13:08.315Z,20.66
2018-08-20T02:14:09.028Z,20.70
2018-08-20T02:15:09.744Z,20.65
2018-08-20T02:16:10.459Z,20.63
2018-08-20T02:17:11.174Z,20.66
2018-08-20T02:18:11.892Z,20.59
2018-08-20T02:19:12.617Z,20.60
2018-08-20T02:20:13.331Z,20.63
2018-08-20T02:21:14.045Z,20.59
2018-08-20T02:22:14.772Z,20.66
2018-08-20T02:23:15.487Z,20.56
2018-08-20T02:24:16.203Z,20.60
2018-08-20T02:25:16.917Z,20.59
2018-08-20T02:26:17.632Z,20.63
2018-08-20T02:27:18.362Z,20.56
2018-08-20T02:28:19.090Z,20.63
2018-08-20T02:29:19.819Z,20.62
2018-08-20T02:30:20.520Z,20.66
2018-08-20T02:31:21.244Z,20.63
2018-08-20T02:32:21.969Z,20.60
2018-08-20T02:33:22.681Z,20.62
2018-08-20T02:34:23.395Z,20.58
2018-08-20T02:35:24.109Z,20.62
2018-08-20T02:36:24.824Z,20.62
2018-08-20T02:37:25.539Z,20.62
2018-08-20T02:38:26.254Z,20.59
2018-08-20T02:39:26.970Z,20.66
2018-08-20T02:40:27.687Z,20.58
2018-08-20T02:41:28.404Z,20.60
2018-08-20T02:42:29.119Z,20.56
2018-08-20T02:43:29.835Z,20.55
2018-08-20T02:44:30.551Z,20.62
2018-08-20T02:45:31.265Z,20.56
2018-08-20T02:46:31.993Z,20.50
2018-08-20T02:47:32.708Z,20.50
2018-08-20T02:48:33.441Z,20.63
2018-08-20T02:49:34.163Z,20.47
2018-08-20T02:50:34.878Z,20.56
2018-08-20T02:51:35.606Z,20.40
2018-08-20T02:52:36.322Z,20.52
2018-08-20T02:53:37.035Z,20.47
2018-08-20T02:54:37.751Z,20.43
2018-08-20T02:55:38.466Z,20.41
2018-08-20T02:56:39.185Z,20.40
2018-08-20T02:57:39.898Z,20.39
2018-08-20T02:58:40.614Z,20.41
2018-08-20T02:59:41.327Z,20.40
2018-08-20T03:00:42.041Z,20.41
2018-08-20T03:01:42.755Z,20.37
2018-08-20T03:02:43.469Z,20.39
2018-08-20T03:03:44.235Z,20.36
2018-08-20T03:04:44.907Z,20.32
2018-08-20T03:05:45.622Z,20.41
2018-08-20T03:06:46.339Z,20.34
2018-08-20T03:07:47.055Z,20.39
2018-08-20T03:08:47.769Z,20.36
2018-08-20T03:09:48.499Z,20.36
2018-08-20T03:10:49.229Z,20.29
2018-08-20T03:11:49.947Z,20.34
2018-08-20T03:12:50.663Z,20.34
2018-08-20T03:13:51.378Z,20.28
2018-08-20T03:14:52.095Z,20.29
2018-08-20T03:15:52.810Z,20.32
2018-08-20T03:16:53.525Z,20.37
2018-08-20T03:17:54.239Z,20.31
2018-08-20T03:18:54.967Z,20.28
2018-08-20T03:19:55.696Z,20.31
2018-08-20T03:20:56.412Z,20.29
2018-08-20T03:21:57.130Z,20.28
2018-08-20T03:22:57.846Z,20.32
2018-08-20T03:23:58.572Z,20.29
2018-08-20T03:24:59.288Z,20.25
2018-08-20T03:26:00.003Z,20.24
2018-08-20T03:27:00.718Z,20.21
2018-08-20T03:28:01.449Z,20.25
2018-08-20T03:29:02.164Z,20.28
2018-08-20T03:30:02.879Z,20.26
2018-08-20T03:31:03.598Z,20.21
2018-08-20T03:32:04.324Z,20.24
2018-08-20T03:33:05.040Z,20.24
2018-08-20T03:34:05.767Z,20.18
2018-08-20T03:35:06.482Z,20.25
2018-08-20T03:36:07.212Z,20.21
2018-08-20T03:37:07.927Z,20.24
2018-08-20T03:38:08.661Z,20.19
2018-08-20T03:39:09.375Z,20.19
2018-08-20T03:40:10.089Z,20.19
2018-08-20T03:41:10.802Z,20.24
2018-08-20T03:42:11.519Z,20.22
2018-08-20T03:43:12.236Z,20.13
2018-08-20T03:44:12.951Z,20.19
2018-08-20T03:45:13.678Z,20.21
2018-08-20T03:46:14.408Z,20.09
2018-08-20T03:47:15.136Z,20.16
2018-08-20T03:48:15.851Z,20.19
2018-08-20T03:49:16.565Z,20.10
2018-08-20T03:50:17.295Z,20.24
2018-08-20T03:51:18.009Z,20.25
2018-08-20T03:52:18.737Z,20.24
2018-08-20T03:53:19.468Z,20.25
2018-08-20T03:54:20.193Z,20.19
2018-08-20T03:55:20.910Z,20.21
2018-08-20T03:56:21.665Z,20.18
2018-08-20T03:57:22.339Z,20.19
2018-08-20T03:58:23.054Z,20.24
2018-08-20T03:59:23.769Z,20.18
2018-08-20T04:00:24.484Z,20.07
2018-08-20T04:01:25.198Z,20.07
2018-08-20T04:02:25.916Z,20.18
2018-08-20T04:03:26.629Z,20.13
2018-08-20T04:04:27.350Z,20.09
2018-08-20T04:05:28.058Z,20.11
2018-08-20T04:06:28.772Z,20.10
2018-08-20T04:07:29.487Z,20.09
2018-08-20T04:08:30.216Z,20.16
2018-08-20T04:09:30.933Z,20.11
2018-08-20T04:10:31.648Z,20.10
2018-08-20T04:11:32.364Z,20.10
2018-08-20T04:12:33.084Z,20.09
2018-08-20T04:13:33.795Z,20.10
2018-08-20T04:14:34.523Z,20.16
2018-08-20T04:15:35.237Z,20.09
2018-08-20T04:16:35.952Z,20.10
2018-08-20T04:17:36.667Z,20.10
2018-08-20T04:18:37.385Z,20.04
2018-08-20T04:19:38.150Z,20.13
2018-08-20T04:20:38.869Z,20.09
2018-08-20T04:21:39.583Z,20.13
2018-08-20T04:22:40.299Z,20.14
2018-08-20T04:23:41.014Z,20.14
2018-08-20T04:24:41.729Z,20.07
2018-08-20T04:25:42.445Z,20.06
2018-08-20T04:26:43.160Z,20.10
2018-08-20T04:27:43.875Z,20.09
2018-08-20T04:28:44.590Z,20.11
2018-08-20T04:29:45.309Z,20.03
2018-08-20T04:30:46.135Z,20.04
2018-08-20T04:31:46.748Z,20.06
2018-08-20T04:32:47.467Z,20.11
2018-08-20T04:33:48.184Z,20.06
2018-08-20T04:34:48.902Z,20.10
2018-08-20T04:35:49.619Z,20.10
2018-08-20T04:36:50.337Z,20.10
2018-08-20T04:37:51.067Z,20.09
2018-08-20T04:38:51.785Z,20.10
2018-08-20T04:39:52.502Z,20.11
2018-08-20T04:40:53.236Z,20.11
2018-08-20T04:41:53.964Z,20.10
2018-08-20T04:42:54.699Z,20.07
2018-08-20T04:43:55.427Z,20.09
2018-08-20T04:44:56.145Z,20.00
2018-08-20T04:45:56.861Z,20.09
2018-08-20T04:46:57.577Z,20.02
2018-08-20T04:47:58.296Z,20.04
2018-08-20T04:48:59.014Z,20.09
2018-08-20T04:49:59.832Z,20.09
2018-08-20T04:51:00.645Z,20.09
2018-08-20T04:52:01.176Z,19.94
2018-08-20T04:53:01.897Z,19.99
2018-08-20T04:54:02.624Z,20.10
2018-08-20T04:55:03.342Z,20.07
2018-08-20T04:56:04.075Z,19.96
2018-08-20T04:57:04.793Z,20.00
2018-08-20T04:58:05.528Z,19.96
2018-08-20T04:59:06.249Z,19.94
2018-08-20T05:00:06.978Z,19.99
2018-08-20T05:01:07.695Z,19.92
2018-08-20T05:02:08.414Z,20.00
2018-08-20T05:03:09.146Z,19.95
2018-08-20T05:04:09.889Z,20.03
2018-08-20T05:05:10.596Z,19.94
2018-08-20T05:06:11.329Z,19.94
2018-08-20T05:07:12.060Z,19.92
2018-08-20T05:08:12.795Z,19.99
2018-08-20T05:09:13.513Z,20.09
2018-08-20T05:10:14.231Z,19.91
2018-08-20T05:11:14.948Z,20.00
2018-08-20T05:12:15.666Z,19.95
2018-08-20T05:13:16.387Z,19.95
2018-08-20T05:14:17.104Z,19.95
2018-08-20T05:15:17.821Z,19.99
2018-08-20T05:16:18.540Z,20.00
2018-08-20T05:17:19.261Z,20.04
2018-08-20T05:18:19.991Z,20.03
2018-08-20T05:19:20.712Z,19.99
2018-08-20T05:20:21.428Z,20.00
2018-08-20T05:21:22.161Z,20.04
2018-08-20T05:22:22.880Z,20.00
2018-08-20T05:23:23.600Z,19.99
2018-08-20T05:24:24.319Z,19.99
2018-08-20T05:25:25.056Z,20.09
2018-08-20T05:26:25.773Z,20.07
2018-08-20T05:27:26.502Z,20.06
2018-08-20T05:28:27.221Z,20.10
2018-08-20T05:29:28.039Z,20.09
2018-08-20T05:30:28.659Z,20.09
2018-08-20T05:31:29.378Z,20.10
2018-08-20T05:32:30.099Z,20.10
2018-08-20T05:33:30.816Z,20.09
2018-08-20T05:34:31.549Z,20.10
2018-08-20T05:35:32.265Z,20.10
2018-08-20T05:36:32.987Z,20.03
2018-08-20T05:37:33.718Z,20.02
2018-08-20T05:38:34.439Z,20.06
2018-08-20T05:39:35.158Z,20.04
2018-08-20T05:40:35.875Z,20.07
2018-08-20T05:41:36.597Z,20.09
2018-08-20T05:42:37.317Z,20.10
2018-08-20T05:43:38.053Z,20.10
2018-08-20T05:44:38.796Z,20.16
2018-08-20T05:45:39.517Z,20.19
2018-08-20T05:46:40.240Z,20.21
2018-08-20T05:47:40.972Z,20.24
2018-08-20T05:48:41.690Z,20.14
2018-08-20T05:49:42.420Z,20.13
2018-08-20T05:50:43.140Z,20.10
2018-08-20T05:51:43.861Z,20.09
2018-08-20T05:52:44.583Z,20.06
2018-08-20T05:53:45.303Z,20.21
2018-08-20T05:54:46.022Z,20.19
2018-08-20T05:55:46.742Z,20.19
2018-08-20T05:56:47.461Z,20.21
2018-08-20T05:57:48.179Z,20.21
2018-08-20T05:58:48.899Z,20.29
2018-08-20T05:59:49.620Z,20.25
2018-08-20T06:00:50.340Z,20.29
2018-08-20T06:01:51.087Z,20.29
2018-08-20T06:02:51.779Z,20.28
2018-08-20T06:03:52.499Z,20.25
2018-08-20T06:04:53.219Z,20.34
2018-08-20T06:05:53.942Z,20.34
2018-08-20T06:06:54.678Z,20.39
2018-08-20T06:07:55.486Z,20.36
2018-08-20T06:08:56.127Z,20.44
2018-08-20T06:09:56.860Z,20.39
2018-08-20T06:10:57.582Z,20.32
2018-08-20T06:11:58.315Z,20.36
2018-08-20T06:12:59.035Z,20.41
2018-08-20T06:13:59.755Z,20.40
2018-08-20T06:15:00.476Z,20.41
2018-08-20T06:16:01.202Z,20.41
2018-08-20T06:17:01.932Z,20.52
2018-08-20T06:18:02.665Z,20.50
2018-08-20T06:19:03.398Z,20.44
2018-08-20T06:20:04.117Z,20.48
2018-08-20T06:21:04.849Z,20.50
2018-08-20T06:22:05.584Z,20.47
2018-08-20T06:23:06.302Z,20.50
2018-08-20T06:24:07.021Z,20.58
2018-08-20T06:25:07.846Z,20.52
2018-08-20T06:26:08.469Z,20.62
2018-08-20T06:27:09.192Z,20.59
2018-08-20T06:28:09.912Z,20.55
2018-08-20T06:29:10.631Z,20.60
2018-08-20T06:30:11.364Z,20.60
2018-08-20T06:31:12.098Z,20.59
2018-08-20T06:32:12.817Z,20.55
2018-08-20T06:33:13.536Z,20.59
2018-08-20T06:34:14.257Z,20.59
2018-08-20T06:35:14.976Z,20.60
2018-08-20T06:36:15.710Z,20.58
2018-08-20T06:37:16.431Z,20.62
2018-08-20T06:38:17.156Z,20.65
2018-08-20T06:39:17.889Z,20.66
2018-08-20T06:40:18.611Z,20.63
2018-08-20T06:41:19.329Z,20.58
2018-08-20T06:42:20.063Z,20.59
2018-08-20T06:43:20.782Z,20.56
2018-08-20T06:44:21.504Z,20.55
2018-08-20T06:45:22.230Z,20.58
2018-08-20T06:46:22.959Z,20.58
2018-08-20T06:47:23.681Z,20.56
2018-08-20T06:48:24.413Z,20.59
2018-08-20T06:49:25.157Z,20.60
2018-08-20T06:50:25.857Z,20.62
2018-08-20T06:51:26.579Z,20.59
2018-08-20T06:52:27.301Z,20.58
2018-08-20T06:53:28.024Z,20.66
2018-08-20T06:54:28.746Z,20.75
2018-08-20T06:55:29.464Z,20.70
2018-08-20T06:56:30.187Z,20.63
2018-08-20T06:57:30.908Z,20.69
2018-08-20T06:58:31.629Z,20.78
2018-08-20T06:59:32.351Z,20.75
2018-08-20T07:00:33.085Z,20.77
2018-08-20T07:01:33.825Z,20.81
2018-08-20T07:02:34.563Z,20.85
2018-08-20T07:03:35.300Z,20.85
2018-08-20T07:04:36.021Z,20.78
2018-08-20T07:05:36.743Z,20.80
2018-08-20T07:06:37.464Z,20.74
2018-08-20T07:07:38.188Z,20.70
2018-08-20T07:08:38.921Z,20.80
2018-08-20T07:09:39.643Z,20.84
2018-08-20T07:10:40.363Z,20.88
2018-08-20T07:11:41.135Z,20.80
2018-08-20T07:12:41.823Z,20.85
2018-08-20T07:13:42.543Z,20.84
2018-08-20T07:14:43.262Z,20.92
2018-08-20T07:15:43.999Z,20.93
2018-08-20T07:16:44.718Z,20.97
2018-08-20T07:17:45.442Z,21.06
2018-08-20T07:18:46.164Z,21.09
2018-08-20T07:19:46.885Z,21.11
2018-08-20T07:20:47.609Z,21.03
2018-08-20T07:21:48.330Z,20.96
2018-08-20T07:22:49.066Z,20.97
2018-08-20T07:23:49.799Z,21.00
2018-08-20T07:24:50.503Z,20.96
2018-08-20T07:25:51.225Z,20.97
2018-08-20T07:26:51.947Z,20.99
2018-08-20T07:27:52.668Z,21.17
2018-08-20T07:28:53.390Z,21.22
2018-08-20T07:29:54.115Z,21.22
2018-08-20T07:30:54.831Z,21.32
2018-08-20T07:31:55.555Z,21.30
2018-08-20T07:32:56.335Z,21.35
2018-08-20T07:33:57.026Z,21.30
2018-08-20T07:34:57.761Z,21.36
2018-08-20T07:35:58.485Z,21.46
2018-08-20T07:36:59.221Z,21.52
2018-08-20T07:37:59.942Z,21.66
2018-08-20T07:39:00.677Z,21.64
2018-08-20T07:40:01.405Z,21.76
2018-08-20T07:41:02.133Z,21.76
2018-08-20T07:42:02.858Z,21.82
2018-08-20T07:43:03.582Z,21.83
2018-08-20T07:44:04.306Z,21.83
2018-08-20T07:45:05.029Z,21.92
2018-08-20T07:46:05.753Z,21.99
2018-08-20T07:47:06.474Z,21.92
2018-08-20T07:48:07.196Z,21.93
2018-08-20T07:49:07.933Z,21.96
2018-08-20T07:50:08.668Z,21.87
2018-08-20T07:51:09.391Z,21.95
2018-08-20T07:52:10.119Z,21.98
2018-08-20T07:53:10.851Z,21.98
2018-08-20T07:54:11.574Z,21.95
2018-08-20T07:55:12.295Z,21.96
2018-08-20T07:56:13.019Z,21.99
2018-08-20T07:57:13.742Z,21.99
2018-08-20T07:58:14.464Z,22.02
2018-08-20T07:59:15.188Z,22.17
2018-08-20T08:00:15.911Z,22.11
2018-08-20T08:01:16.633Z,22.10
2018-08-20T08:02:17.359Z,22.04
2018-08-20T08:03:18.081Z,21.99
2018-08-20T08:04:18.805Z,22.08
2018-08-20T08:05:19.538Z,21.95
2018-08-20T08:06:20.263Z,21.95
2018-08-20T08:07:20.989Z,21.95
2018-08-20T08:08:21.722Z,21.93
2018-08-20T08:09:22.447Z,21.89
2018-08-20T08:10:23.170Z,21.99
2018-08-20T08:11:23.894Z,21.93
2018-08-20T08:12:24.620Z,21.93
2018-08-20T08:13:25.355Z,21.99
2018-08-20T08:14:26.089Z,22.00
2018-08-20T08:15:26.813Z,21.95
2018-08-20T08:16:27.549Z,21.93
2018-08-20T08:17:28.273Z,21.80
2018-08-20T08:18:29.007Z,21.98
2018-08-20T08:19:29.776Z,21.82
2018-08-20T08:20:30.500Z,21.91
2018-08-20T08:21:31.224Z,21.82
2018-08-20T08:22:31.946Z,21.83
2018-08-20T08:23:32.685Z,21.67
2018-08-20T08:24:33.407Z,21.66
2018-08-20T08:25:34.141Z,21.62
2018-08-20T08:26:34.919Z,21.66
2018-08-20T08:27:35.587Z,21.57
2018-08-20T08:28:36.309Z,21.62
2018-08-20T08:29:37.045Z,21.66
2018-08-20T08:30:37.768Z,21.62
2018-08-20T08:31:38.490Z,21.67
2018-08-20T08:32:39.211Z,21.69
2018-08-20T08:33:39.936Z,21.76
2018-08-20T08:34:40.656Z,21.66
2018-08-20T08:35:41.391Z,21.70
2018-08-20T08:36:42.113Z,21.67
2018-08-20T08:37:42.838Z,21.69
2018-08-20T08:38:43.561Z,21.60
2018-08-20T08:39:44.296Z,21.72
2018-08-20T08:40:45.018Z,21.72
2018-08-20T08:41:45.740Z,21.73
2018-08-20T08:42:46.475Z,21.76
2018-08-20T08:43:47.199Z,21.72
2018-08-20T08:44:47.921Z,21.79
2018-08-20T08:45:48.645Z,21.87
2018-08-20T08:46:49.414Z,21.80
2018-08-20T08:47:50.089Z,21.82
2018-08-20T08:48:50.811Z,21.85
2018-08-20T08:49:51.630Z,21.80
2018-08-20T08:50:52.258Z,21.80
2018-08-20T08:51:52.984Z,21.92
2018-08-20T08:52:53.707Z,22.04
2018-08-20T08:53:54.432Z,22.08
2018-08-20T08:54:55.155Z,22.11
2018-08-20T08:55:55.881Z,22.15
2018-08-20T08:56:56.608Z,22.25
2018-08-20T08:57:57.344Z,22.45
2018-08-20T08:58:58.068Z,22.45
2018-08-20T08:59:58.795Z,22.60
2018-08-20T09:00:59.530Z,22.69
2018-08-20T09:02:00.255Z,22.66
2018-08-20T09:03:00.981Z,22.78
2018-08-20T09:04:01.707Z,22.85
2018-08-20T09:05:02.431Z,22.98
2018-08-20T09:06:03.171Z,23.12
2018-08-20T09:07:03.911Z,23.06
2018-08-20T09:08:04.640Z,23.20
2018-08-20T09:09:05.366Z,23.32
2018-08-20T09:10:06.109Z,23.31
2018-08-20T09:11:06.833Z,23.18
2018-08-20T09:12:07.558Z,23.10
2018-08-20T09:13:08.289Z,23.09
2018-08-20T09:14:09.015Z,23.00
2018-08-20T09:15:09.741Z,22.96
2018-08-20T09:16:10.465Z,22.80
2018-08-20T09:17:11.192Z,22.66
2018-08-20T09:18:11.917Z,22.60
2018-08-20T09:19:12.645Z,22.55
2018-08-20T09:20:13.369Z,22.53
2018-08-20T09:21:14.106Z,22.50
2018-08-20T09:22:14.834Z,22.45
2018-08-20T09:23:15.558Z,22.60
2018-08-20T09:24:16.288Z,22.87
2018-08-20T09:25:17.016Z,23.10
2018-08-20T09:26:17.743Z,23.06
2018-08-20T09:27:18.470Z,23.06
2018-08-20T09:28:19.198Z,23.09
2018-08-20T09:29:19.924Z,23.12
2018-08-20T09:30:20.649Z,23.09
2018-08-20T09:31:21.378Z,22.98
2018-08-20T09:32:22.202Z,23.13
2018-08-20T09:33:22.844Z,23.13
2018-08-20T09:34:23.584Z,23.43
2018-08-20T09:35:24.310Z,23.62
2018-08-20T09:36:25.063Z,23.56
2018-08-20T09:37:25.796Z,23.59
2018-08-20T09:38:26.559Z,23.91
2018-08-20T09:39:27.253Z,23.91
2018-08-20T09:40:27.996Z,23.91
2018-08-20T09:41:28.730Z,23.95
2018-08-20T09:42:29.475Z,24.23
2018-08-20T09:43:30.203Z,24.16
2018-08-20T09:44:30.934Z,24.24
2018-08-20T09:45:31.664Z,24.39
2018-08-20T09:46:32.395Z,24.43
2018-08-20T09:47:33.129Z,24.45
2018-08-20T09:48:33.871Z,24.47
2018-08-20T09:49:34.601Z,24.57
2018-08-20T09:50:35.333Z,24.57
2018-08-20T09:51:36.062Z,24.57
2018-08-20T09:52:36.792Z,24.24
2018-08-20T09:53:37.537Z,24.01
2018-08-20T09:54:38.264Z,23.86
2018-08-20T09:55:38.996Z,23.62
2018-08-20T09:56:39.737Z,23.41
2018-08-20T09:57:40.463Z,23.46
2018-08-20T09:58:41.190Z,23.20
2018-08-20T09:59:41.919Z,23.23
2018-08-20T10:00:42.646Z,23.15
2018-08-20T10:01:43.376Z,22.90
2018-08-20T10:02:44.104Z,22.87
2018-08-20T10:03:44.829Z,22.85
2018-08-20T10:04:45.557Z,22.81
2018-08-20T10:05:46.281Z,22.69
2018-08-20T10:06:47.016Z,22.59
2018-08-20T10:07:47.739Z,22.51
2018-08-20T10:08:48.463Z,22.47
2018-08-20T10:09:49.199Z,22.47
2018-08-20T10:10:49.919Z,22.39
2018-08-20T10:11:50.655Z,22.35
2018-08-20T10:12:51.390Z,22.29
2018-08-20T10:13:52.116Z,22.29
2018-08-20T10:14:52.852Z,22.22
2018-08-20T10:15:53.576Z,22.17
2018-08-20T10:16:54.313Z,22.14
2018-08-20T10:17:55.035Z,22.06
2018-08-20T10:18:55.760Z,22.04
2018-08-20T10:19:56.491Z,22.02
2018-08-20T10:20:57.211Z,21.99
2018-08-20T10:21:57.934Z,22.00
2018-08-20T10:22:58.665Z,21.96
2018-08-20T10:23:59.377Z,21.99
2018-08-20T10:25:00.111Z,21.93
2018-08-20T10:26:00.831Z,21.92
2018-08-20T10:27:01.555Z,21.89
2018-08-20T10:28:02.292Z,21.95
2018-08-20T10:29:03.011Z,21.98
2018-08-20T10:30:03.730Z,21.82
2018-08-20T10:31:04.449Z,21.87
2018-08-20T10:32:05.249Z,21.76
2018-08-20T10:33:05.893Z,21.80
2018-08-20T10:34:06.615Z,21.82
2018-08-20T10:35:07.338Z,21.83
2018-08-20T10:36:08.056Z,21.75
2018-08-20T10:37:08.776Z,21.76
2018-08-20T10:38:09.514Z,21.61
2018-08-20T10:39:10.246Z,21.64
2018-08-20T10:40:10.984Z,21.57
2018-08-20T10:41:11.704Z,21.50
2018-08-20T10:42:12.424Z,21.46
2018-08-20T10:43:13.145Z,21.48
2018-08-20T10:44:13.866Z,21.54
2018-08-20T10:45:14.588Z,21.50
2018-08-20T10:46:15.323Z,21.51
2018-08-20T10:47:16.057Z,21.50
2018-08-20T10:48:16.777Z,21.55
2018-08-20T10:49:17.513Z,21.55
2018-08-20T10:50:18.233Z,21.54
2018-08-20T10:51:18.954Z,21.61
2018-08-20T10:52:19.675Z,21.55
2018-08-20T10:53:20.410Z,21.60
2018-08-20T10:54:21.142Z,21.55
2018-08-20T10:55:21.881Z,21.62
2018-08-20T10:56:22.636Z,21.69
2018-08-20T10:57:23.335Z,21.62
2018-08-20T10:58:24.059Z,21.66
2018-08-20T10:59:24.782Z,21.69
2018-08-20T11:00:25.515Z,21.61
2018-08-20T11:01:26.236Z,21.58
2018-08-20T11:02:26.958Z,21.58
2018-08-20T11:03:27.681Z,21.69
2018-08-20T11:04:28.404Z,21.66
2018-08-20T11:05:29.125Z,21.73
2018-08-20T11:06:29.860Z,21.69
2018-08-20T11:07:30.583Z,21.77
2018-08-20T11:08:31.305Z,21.73
2018-08-20T11:09:32.029Z,21.82
2018-08-20T11:10:32.765Z,21.95
2018-08-20T11:11:33.504Z,22.00
2018-08-20T11:12:34.238Z,22.10
2018-08-20T11:13:34.963Z,22.08
2018-08-20T11:14:35.686Z,22.08
2018-08-20T11:15:36.408Z,22.20
2018-08-20T11:16:37.130Z,22.18
2018-08-20T11:17:37.852Z,22.33
2018-08-20T11:18:38.590Z,22.41
2018-08-20T11:19:39.298Z,22.45
2018-08-20T11:20:40.021Z,22.55
2018-08-20T11:21:40.756Z,22.50
2018-08-20T11:22:41.476Z,22.48
2018-08-20T11:23:42.216Z,22.44
2018-08-20T11:24:42.938Z,22.62
2018-08-20T11:25:43.664Z,22.57
2018-08-20T11:26:44.386Z,22.55
2018-08-20T11:27:45.109Z,22.63
2018-08-20T11:28:45.830Z,22.62
2018-08-20T11:29:46.552Z,22.73
2018-08-20T11:30:47.274Z,22.70
2018-08-20T11:31:47.996Z,22.78
2018-08-20T11:32:48.720Z,22.80
2018-08-20T11:33:49.442Z,22.73
2018-08-20T11:34:50.161Z,22.83
2018-08-20T11:35:50.885Z,22.83
2018-08-20T11:36:51.608Z,22.93
2018-08-20T11:37:52.343Z,22.90
2018-08-20T11:38:53.072Z,22.91
2018-08-20T11:39:53.792Z,22.93
2018-08-20T11:40:54.514Z,23.09
2018-08-20T11:41:55.234Z,23.05
2018-08-20T11:42:55.971Z,23.00
2018-08-20T11:43:56.708Z,22.94
2018-08-20T11:44:57.441Z,22.85
2018-08-20T11:45:58.168Z,22.69
2018-08-20T11:46:58.882Z,22.60
2018-08-20T11:47:59.603Z,22.63
2018-08-20T11:49:00.330Z,22.70
2018-08-20T11:50:01.046Z,22.66
2018-08-20T11:51:01.766Z,22.73
2018-08-20T11:52:02.500Z,22.72
2018-08-20T11:53:03.224Z,22.65
2018-08-20T11:54:03.958Z,22.65
2018-08-20T11:55:04.687Z,22.54
2018-08-20T11:56:05.412Z,22.69
2018-08-20T11:57:06.131Z,22.72
2018-08-20T11:58:06.854Z,22.85
2018-08-20T11:59:07.688Z,22.91
2018-08-20T12:00:08.318Z,22.84
2018-08-20T12:01:09.040Z,22.85
2018-08-20T12:02:09.763Z,23.00
2018-08-20T12:03:10.501Z,23.10
2018-08-20T12:04:11.224Z,23.27
2018-08-20T12:05:11.948Z,23.31
2018-08-20T12:06:12.669Z,23.44
2018-08-20T12:07:13.398Z,23.54
2018-08-20T12:08:14.118Z,23.65
2018-08-20T12:09:14.844Z,23.77
2018-08-20T12:10:15.564Z,23.84
2018-08-20T12:11:16.290Z,23.88
2018-08-20T12:12:17.016Z,24.14
2018-08-20T12:13:17.747Z,24.20
2018-08-20T12:14:18.480Z,24.39
2018-08-20T12:15:19.266Z,24.60
2018-08-20T12:16:19.943Z,24.76
2018-08-20T12:17:20.730Z,24.92
2018-08-20T12:18:21.404Z,24.86
2018-08-20T12:19:22.129Z,24.96
2018-08-20T12:20:22.871Z,25.21
2018-08-20T12:21:23.603Z,25.41
2018-08-20T12:22:24.360Z,25.91
2018-08-20T12:23:25.086Z,26.10
2018-08-20T12:24:25.820Z,26.73
2018-08-20T12:25:26.561Z,26.74
2018-08-20T12:26:27.294Z,26.97
2018-08-20T12:27:28.034Z,27.14
2018-08-20T12:28:28.765Z,27.68
2018-08-20T12:29:29.497Z,27.86
2018-08-20T12:30:30.237Z,28.08
2018-08-20T12:31:30.979Z,28.39
2018-08-20T12:32:31.722Z,28.45
2018-08-20T12:33:32.450Z,28.38
2018-08-20T12:34:33.181Z,28.48
2018-08-20T12:35:33.927Z,28.56
2018-08-20T12:36:34.657Z,28.89
2018-08-20T12:37:35.387Z,29.01
2018-08-20T12:38:36.120Z,28.91
2018-08-20T12:39:36.853Z,29.05
2018-08-20T12:40:37.583Z,29.12
2018-08-20T12:41:38.327Z,29.23
2018-08-20T12:42:39.059Z,29.49
2018-08-20T12:43:39.791Z,29.57
2018-08-20T12:44:40.519Z,29.69
2018-08-20T12:45:41.250Z,29.79
2018-08-20T12:46:41.981Z,29.53
2018-08-20T12:47:42.712Z,29.53
2018-08-20T12:48:43.441Z,29.49
2018-08-20T12:49:44.174Z,29.68
2018-08-20T12:50:44.905Z,29.95
2018-08-20T12:51:45.635Z,29.82
2018-08-20T12:52:46.366Z,29.75
2018-08-20T12:53:47.116Z,29.81
2018-08-20T12:54:47.845Z,29.54
2018-08-20T12:55:48.577Z,29.57
2018-08-20T12:56:49.310Z,29.61
2018-08-20T12:57:50.052Z,29.73
2018-08-20T12:58:50.783Z,29.76
2018-08-20T12:59:51.512Z,29.93
2018-08-20T13:00:52.296Z,29.72
2018-08-20T13:01:52.983Z,29.65